sensor_id;sensor_type;location;lat;lon;timestamp;P1;durP1;ratioP1;P2;durP2;ratioP2
25391;SDS011;13329;48.402;11.718;2023-04-25T00:01:23;3.42;;;1.42;;
25391;SDS011;13329;48.402;11.718;2023-04-25T00:03:48;3.63;;;1.52;;
25391;SDS011;13329;48.402;11.718;2023-04-25T00:06:14;4.27;;;1.60;;
25391;SDS011;13329;48.402;11.718;2023-04-25T00:08:39;2.38;;;1.60;;
25391;SDS011;13329;48.402;11.718;2023-04-25T00:11:04;4.47;;;1.67;;
25391;SDS011;13329;48.402;11.718;2023-04-25T00:13:29;3.13;;;1.52;;
25391;SDS011;13329;48.402;11.718;2023-04-25T00:15:55;2.60;;;1.27;;
25391;SDS011;13329;48.402;11.718;2023-04-25T00:18:21;3.88;;;1.48;;
25391;SDS011;13329;48.402;11.718;2023-04-25T00:20:46;3.83;;;1.50;;
25391;SDS011;13329;48.402;11.718;2023-04-25T00:23:21;2.20;;;1.40;;
25391;SDS011;13329;48.402;11.718;2023-04-25T00:25:48;3.97;;;1.70;;
25391;SDS011;13329;48.402;11.718;2023-04-25T00:28:14;2.20;;;1.48;;
25391;SDS011;13329;48.402;11.718;2023-04-25T00:30:40;3.25;;;1.67;;
25391;SDS011;13329;48.402;11.718;2023-04-25T00:33:05;2.85;;;1.73;;
25391;SDS011;13329;48.402;11.718;2023-04-25T00:35:31;2.10;;;1.58;;
25391;SDS011;13329;48.402;11.718;2023-04-25T00:37:56;1.80;;;1.30;;
25391;SDS011;13329;48.402;11.718;2023-04-25T00:40:21;2.00;;;1.33;;
25391;SDS011;13329;48.402;11.718;2023-04-25T00:42:47;4.70;;;1.60;;
25391;SDS011;13329;48.402;11.718;2023-04-25T00:45:12;2.83;;;1.73;;
25391;SDS011;13329;48.402;11.718;2023-04-25T00:47:38;3.30;;;1.73;;
25391;SDS011;13329;48.402;11.718;2023-04-25T00:50:05;4.65;;;1.90;;
25391;SDS011;13329;48.402;11.718;2023-04-25T00:52:30;4.20;;;1.50;;
25391;SDS011;13329;48.402;11.718;2023-04-25T00:54:56;2.45;;;1.52;;
25391;SDS011;13329;48.402;11.718;2023-04-25T00:57:21;2.20;;;1.70;;
25391;SDS011;13329;48.402;11.718;2023-04-25T00:59:46;2.73;;;1.70;;
25391;SDS011;13329;48.402;11.718;2023-04-25T01:02:12;4.60;;;1.90;;
25391;SDS011;13329;48.402;11.718;2023-04-25T01:04:37;3.80;;;1.85;;
25391;SDS011;13329;48.402;11.718;2023-04-25T01:07:02;3.33;;;1.63;;
25391;SDS011;13329;48.402;11.718;2023-04-25T01:09:28;4.57;;;1.90;;
25391;SDS011;13329;48.402;11.718;2023-04-25T01:11:55;3.05;;;1.63;;
25391;SDS011;13329;48.402;11.718;2023-04-25T01:14:20;4.38;;;2.00;;
25391;SDS011;13329;48.402;11.718;2023-04-25T01:16:45;3.28;;;1.88;;
25391;SDS011;13329;48.402;11.718;2023-04-25T01:19:10;4.50;;;2.17;;
25391;SDS011;13329;48.402;11.718;2023-04-25T01:21:39;4.18;;;1.88;;
25391;SDS011;13329;48.402;11.718;2023-04-25T01:24:04;2.97;;;1.70;;
25391;SDS011;13329;48.402;11.718;2023-04-25T01:26:30;3.33;;;1.90;;
25391;SDS011;13329;48.402;11.718;2023-04-25T01:28:55;3.55;;;1.70;;
25391;SDS011;13329;48.402;11.718;2023-04-25T01:31:21;4.25;;;2.03;;
25391;SDS011;13329;48.402;11.718;2023-04-25T01:33:46;3.92;;;2.08;;
25391;SDS011;13329;48.402;11.718;2023-04-25T01:36:11;3.77;;;2.03;;
25391;SDS011;13329;48.402;11.718;2023-04-25T01:38:37;3.10;;;2.10;;
25391;SDS011;13329;48.402;11.718;2023-04-25T01:41:02;3.00;;;1.92;;
25391;SDS011;13329;48.402;11.718;2023-04-25T01:43:28;2.83;;;1.50;;
25391;SDS011;13329;48.402;11.718;2023-04-25T01:45:53;2.90;;;1.88;;
25391;SDS011;13329;48.402;11.718;2023-04-25T01:48:18;3.23;;;2.00;;
25391;SDS011;13329;48.402;11.718;2023-04-25T01:50:44;3.88;;;1.83;;
25391;SDS011;13329;48.402;11.718;2023-04-25T01:53:10;5.40;;;2.05;;
25391;SDS011;13329;48.402;11.718;2023-04-25T01:55:36;2.60;;;1.92;;
25391;SDS011;13329;48.402;11.718;2023-04-25T01:58:02;4.40;;;1.67;;
25391;SDS011;13329;48.402;11.718;2023-04-25T02:00:27;4.05;;;1.90;;
25391;SDS011;13329;48.402;11.718;2023-04-25T02:02:52;4.90;;;2.00;;
25391;SDS011;13329;48.402;11.718;2023-04-25T02:05:18;4.85;;;1.92;;
25391;SDS011;13329;48.402;11.718;2023-04-25T02:07:43;5.63;;;2.20;;
25391;SDS011;13329;48.402;11.718;2023-04-25T02:10:09;3.03;;;1.87;;
25391;SDS011;13329;48.402;11.718;2023-04-25T02:12:35;2.88;;;1.85;;
25391;SDS011;13329;48.402;11.718;2023-04-25T02:15:00;5.28;;;1.90;;
25391;SDS011;13329;48.402;11.718;2023-04-25T02:17:25;4.13;;;1.90;;
25391;SDS011;13329;48.402;11.718;2023-04-25T02:19:51;2.58;;;1.88;;
25391;SDS011;13329;48.402;11.718;2023-04-25T02:22:16;4.68;;;2.03;;
25391;SDS011;13329;48.402;11.718;2023-04-25T02:24:41;3.70;;;1.93;;
25391;SDS011;13329;48.402;11.718;2023-04-25T02:27:06;3.33;;;2.13;;
25391;SDS011;13329;48.402;11.718;2023-04-25T02:29:32;4.13;;;1.92;;
25391;SDS011;13329;48.402;11.718;2023-04-25T02:31:57;3.57;;;1.97;;
25391;SDS011;13329;48.402;11.718;2023-04-25T02:34:23;3.60;;;2.00;;
25391;SDS011;13329;48.402;11.718;2023-04-25T02:36:48;8.27;;;1.90;;
25391;SDS011;13329;48.402;11.718;2023-04-25T02:39:15;4.80;;;1.77;;
25391;SDS011;13329;48.402;11.718;2023-04-25T02:41:40;4.63;;;2.07;;
25391;SDS011;13329;48.402;11.718;2023-04-25T02:44:06;3.67;;;1.92;;
25391;SDS011;13329;48.402;11.718;2023-04-25T02:46:31;3.40;;;2.20;;
25391;SDS011;13329;48.402;11.718;2023-04-25T02:48:56;6.07;;;1.80;;
25391;SDS011;13329;48.402;11.718;2023-04-25T02:51:21;3.80;;;1.97;;
25391;SDS011;13329;48.402;11.718;2023-04-25T02:53:46;3.33;;;1.83;;
25391;SDS011;13329;48.402;11.718;2023-04-25T02:56:11;2.87;;;1.93;;
25391;SDS011;13329;48.402;11.718;2023-04-25T02:58:37;3.10;;;2.07;;
25391;SDS011;13329;48.402;11.718;2023-04-25T03:01:02;3.20;;;1.77;;
25391;SDS011;13329;48.402;11.718;2023-04-25T03:03:27;3.13;;;1.87;;
25391;SDS011;13329;48.402;11.718;2023-04-25T03:05:52;4.73;;;1.87;;
25391;SDS011;13329;48.402;11.718;2023-04-25T03:08:17;3.53;;;2.07;;
25391;SDS011;13329;48.402;11.718;2023-04-25T03:10:43;3.95;;;2.63;;
25391;SDS011;13329;48.402;11.718;2023-04-25T03:13:09;3.60;;;2.17;;
25391;SDS011;13329;48.402;11.718;2023-04-25T03:15:34;2.73;;;2.00;;
25391;SDS011;13329;48.402;11.718;2023-04-25T03:18:00;3.28;;;1.75;;
25391;SDS011;13329;48.402;11.718;2023-04-25T03:20:25;3.77;;;2.20;;
25391;SDS011;13329;48.402;11.718;2023-04-25T03:22:50;4.43;;;2.20;;
25391;SDS011;13329;48.402;11.718;2023-04-25T03:25:15;3.33;;;1.73;;
25391;SDS011;13329;48.402;11.718;2023-04-25T03:27:41;8.27;;;2.20;;
25391;SDS011;13329;48.402;11.718;2023-04-25T03:30:06;3.07;;;1.80;;
25391;SDS011;13329;48.402;11.718;2023-04-25T03:32:32;2.55;;;1.80;;
25391;SDS011;13329;48.402;11.718;2023-04-25T03:34:57;2.50;;;1.67;;
25391;SDS011;13329;48.402;11.718;2023-04-25T03:37:23;3.60;;;1.83;;
25391;SDS011;13329;48.402;11.718;2023-04-25T03:39:48;3.22;;;2.10;;
25391;SDS011;13329;48.402;11.718;2023-04-25T03:42:13;3.40;;;1.97;;
25391;SDS011;13329;48.402;11.718;2023-04-25T03:44:38;3.05;;;1.60;;
25391;SDS011;13329;48.402;11.718;2023-04-25T03:47:03;2.83;;;1.73;;
25391;SDS011;13329;48.402;11.718;2023-04-25T03:49:28;3.03;;;2.10;;
25391;SDS011;13329;48.402;11.718;2023-04-25T03:51:54;4.27;;;2.20;;
25391;SDS011;13329;48.402;11.718;2023-04-25T03:54:19;2.85;;;1.90;;
25391;SDS011;13329;48.402;11.718;2023-04-25T03:56:44;4.60;;;2.20;;
25391;SDS011;13329;48.402;11.718;2023-04-25T03:59:09;2.67;;;1.93;;
25391;SDS011;13329;48.402;11.718;2023-04-25T04:01:34;3.30;;;1.80;;
25391;SDS011;13329;48.402;11.718;2023-04-25T04:04:00;3.80;;;2.03;;
25391;SDS011;13329;48.402;11.718;2023-04-25T04:06:25;4.75;;;2.17;;
25391;SDS011;13329;48.402;11.718;2023-04-25T04:08:50;3.10;;;2.10;;
25391;SDS011;13329;48.402;11.718;2023-04-25T04:11:15;3.37;;;2.13;;
25391;SDS011;13329;48.402;11.718;2023-04-25T04:13:41;4.23;;;2.10;;
25391;SDS011;13329;48.402;11.718;2023-04-25T04:16:06;4.20;;;2.40;;
25391;SDS011;13329;48.402;11.718;2023-04-25T04:18:31;3.23;;;1.83;;
25391;SDS011;13329;48.402;11.718;2023-04-25T04:20:58;3.75;;;2.20;;
25391;SDS011;13329;48.402;11.718;2023-04-25T04:23:23;3.50;;;1.90;;
25391;SDS011;13329;48.402;11.718;2023-04-25T04:25:48;6.63;;;2.77;;
25391;SDS011;13329;48.402;11.718;2023-04-25T04:28:13;3.27;;;2.07;;
25391;SDS011;13329;48.402;11.718;2023-04-25T04:30:38;6.70;;;1.95;;
25391;SDS011;13329;48.402;11.718;2023-04-25T04:33:04;5.25;;;1.98;;
25391;SDS011;13329;48.402;11.718;2023-04-25T04:35:29;2.43;;;1.77;;
25391;SDS011;13329;48.402;11.718;2023-04-25T04:37:54;5.32;;;1.63;;
25391;SDS011;13329;48.402;11.718;2023-04-25T04:40:20;4.28;;;2.22;;
25391;SDS011;13329;48.402;11.718;2023-04-25T04:42:45;3.73;;;1.77;;
25391;SDS011;13329;48.402;11.718;2023-04-25T04:45:10;3.10;;;1.90;;
25391;SDS011;13329;48.402;11.718;2023-04-25T04:47:35;6.55;;;2.00;;
25391;SDS011;13329;48.402;11.718;2023-04-25T04:50:01;3.53;;;2.08;;
25391;SDS011;13329;48.402;11.718;2023-04-25T04:52:27;4.53;;;2.42;;
25391;SDS011;13329;48.402;11.718;2023-04-25T04:54:52;3.58;;;1.98;;
25391;SDS011;13329;48.402;11.718;2023-04-25T04:57:17;4.17;;;1.90;;
25391;SDS011;13329;48.402;11.718;2023-04-25T04:59:42;3.23;;;1.87;;
25391;SDS011;13329;48.402;11.718;2023-04-25T05:02:07;3.67;;;2.07;;
25391;SDS011;13329;48.402;11.718;2023-04-25T05:04:33;4.07;;;2.20;;
25391;SDS011;13329;48.402;11.718;2023-04-25T05:06:58;5.27;;;2.47;;
25391;SDS011;13329;48.402;11.718;2023-04-25T05:09:23;1.95;;;1.30;;
25391;SDS011;13329;48.402;11.718;2023-04-25T05:11:50;2.10;;;1.48;;
25391;SDS011;13329;48.402;11.718;2023-04-25T05:14:15;3.55;;;1.90;;
25391;SDS011;13329;48.402;11.718;2023-04-25T05:16:42;4.13;;;1.80;;
25391;SDS011;13329;48.402;11.718;2023-04-25T05:19:07;2.20;;;1.38;;
25391;SDS011;13329;48.402;11.718;2023-04-25T05:21:32;4.37;;;1.60;;
25391;SDS011;13329;48.402;11.718;2023-04-25T05:23:57;10.17;;;1.63;;
25391;SDS011;13329;48.402;11.718;2023-04-25T05:26:22;3.13;;;1.63;;
25391;SDS011;13329;48.402;11.718;2023-04-25T05:28:48;2.25;;;1.70;;
25391;SDS011;13329;48.402;11.718;2023-04-25T05:31:15;2.40;;;1.30;;
25391;SDS011;13329;48.402;11.718;2023-04-25T05:33:41;3.17;;;1.67;;
25391;SDS011;13329;48.402;11.718;2023-04-25T05:36:06;2.27;;;1.63;;
25391;SDS011;13329;48.402;11.718;2023-04-25T05:38:31;2.67;;;1.52;;
25391;SDS011;13329;48.402;11.718;2023-04-25T05:40:56;2.63;;;1.67;;
25391;SDS011;13329;48.402;11.718;2023-04-25T05:43:21;2.80;;;1.42;;
25391;SDS011;13329;48.402;11.718;2023-04-25T05:45:47;3.27;;;1.70;;
25391;SDS011;13329;48.402;11.718;2023-04-25T05:48:12;5.13;;;1.73;;
25391;SDS011;13329;48.402;11.718;2023-04-25T05:50:37;5.10;;;1.58;;
25391;SDS011;13329;48.402;11.718;2023-04-25T05:53:02;4.83;;;1.63;;
25391;SDS011;13329;48.402;11.718;2023-04-25T05:55:27;3.47;;;1.03;;
25391;SDS011;13329;48.402;11.718;2023-04-25T05:57:52;4.20;;;1.67;;
25391;SDS011;13329;48.402;11.718;2023-04-25T06:00:18;2.53;;;1.40;;
25391;SDS011;13329;48.402;11.718;2023-04-25T06:02:43;2.00;;;1.02;;
25391;SDS011;13329;48.402;11.718;2023-04-25T06:05:08;3.90;;;1.47;;
25391;SDS011;13329;48.402;11.718;2023-04-25T06:07:34;2.45;;;1.20;;
25391;SDS011;13329;48.402;11.718;2023-04-25T06:09:59;1.97;;;1.33;;
25391;SDS011;13329;48.402;11.718;2023-04-25T06:12:25;4.47;;;1.45;;
25391;SDS011;13329;48.402;11.718;2023-04-25T06:14:50;1.57;;;1.10;;
25391;SDS011;13329;48.402;11.718;2023-04-25T06:17:16;6.33;;;1.60;;
25391;SDS011;13329;48.402;11.718;2023-04-25T06:19:41;0.90;;;0.70;;
25391;SDS011;13329;48.402;11.718;2023-04-25T06:22:06;1.27;;;1.00;;
25391;SDS011;13329;48.402;11.718;2023-04-25T06:24:32;2.55;;;1.48;;
25391;SDS011;13329;48.402;11.718;2023-04-25T06:26:57;2.47;;;1.13;;
25391;SDS011;13329;48.402;11.718;2023-04-25T06:29:22;3.00;;;1.50;;
25391;SDS011;13329;48.402;11.718;2023-04-25T06:31:47;2.53;;;1.33;;
25391;SDS011;13329;48.402;11.718;2023-04-25T06:34:12;1.97;;;1.40;;
25391;SDS011;13329;48.402;11.718;2023-04-25T06:36:38;2.85;;;1.42;;
25391;SDS011;13329;48.402;11.718;2023-04-25T06:39:03;1.40;;;0.90;;
25391;SDS011;13329;48.402;11.718;2023-04-25T06:41:28;1.55;;;0.82;;
25391;SDS011;13329;48.402;11.718;2023-04-25T06:43:53;2.67;;;1.33;;
25391;SDS011;13329;48.402;11.718;2023-04-25T06:46:19;4.83;;;1.70;;
25391;SDS011;13329;48.402;11.718;2023-04-25T06:48:44;1.27;;;0.85;;
25391;SDS011;13329;48.402;11.718;2023-04-25T06:51:09;4.38;;;2.30;;
25391;SDS011;13329;48.402;11.718;2023-04-25T06:53:35;2.25;;;1.33;;
25391;SDS011;13329;48.402;11.718;2023-04-25T06:56:00;1.65;;;1.15;;
25391;SDS011;13329;48.402;11.718;2023-04-25T06:58:25;2.23;;;1.53;;
25391;SDS011;13329;48.402;11.718;2023-04-25T07:00:51;1.52;;;1.10;;
25391;SDS011;13329;48.402;11.718;2023-04-25T07:03:16;4.33;;;1.17;;
25391;SDS011;13329;48.402;11.718;2023-04-25T07:05:41;4.87;;;1.80;;
25391;SDS011;13329;48.402;11.718;2023-04-25T07:08:06;4.17;;;2.00;;
25391;SDS011;13329;48.402;11.718;2023-04-25T07:10:32;3.40;;;1.80;;
25391;SDS011;13329;48.402;11.718;2023-04-25T07:12:57;3.73;;;1.87;;
25391;SDS011;13329;48.402;11.718;2023-04-25T07:15:22;3.90;;;1.83;;
25391;SDS011;13329;48.402;11.718;2023-04-25T07:17:47;5.40;;;2.30;;
25391;SDS011;13329;48.402;11.718;2023-04-25T07:20:12;2.85;;;1.88;;
25391;SDS011;13329;48.402;11.718;2023-04-25T07:22:38;1.92;;;1.33;;
25391;SDS011;13329;48.402;11.718;2023-04-25T07:25:03;2.83;;;0.80;;
25391;SDS011;13329;48.402;11.718;2023-04-25T07:27:29;1.30;;;0.77;;
25391;SDS011;13329;48.402;11.718;2023-04-25T07:29:55;4.57;;;1.45;;
25391;SDS011;13329;48.402;11.718;2023-04-25T07:32:21;5.05;;;1.20;;
25391;SDS011;13329;48.402;11.718;2023-04-25T07:34:46;2.70;;;1.67;;
25391;SDS011;13329;48.402;11.718;2023-04-25T07:37:11;2.43;;;1.37;;
25391;SDS011;13329;48.402;11.718;2023-04-25T07:39:37;2.43;;;1.40;;
25391;SDS011;13329;48.402;11.718;2023-04-25T07:42:02;1.47;;;1.10;;
25391;SDS011;13329;48.402;11.718;2023-04-25T07:44:28;2.35;;;1.38;;
25391;SDS011;13329;48.402;11.718;2023-04-25T07:46:55;2.72;;;1.52;;
25391;SDS011;13329;48.402;11.718;2023-04-25T07:49:20;2.50;;;1.57;;
25391;SDS011;13329;48.402;11.718;2023-04-25T07:51:45;3.23;;;1.77;;
25391;SDS011;13329;48.402;11.718;2023-04-25T07:54:13;2.27;;;1.10;;
25391;SDS011;13329;48.402;11.718;2023-04-25T07:56:39;9.15;;;2.53;;
25391;SDS011;13329;48.402;11.718;2023-04-25T07:59:04;3.83;;;1.80;;
25391;SDS011;13329;48.402;11.718;2023-04-25T08:01:30;3.55;;;2.10;;
25391;SDS011;13329;48.402;11.718;2023-04-25T08:03:55;3.40;;;1.93;;
25391;SDS011;13329;48.402;11.718;2023-04-25T08:06:20;3.07;;;1.80;;
25391;SDS011;13329;48.402;11.718;2023-04-25T08:08:45;3.50;;;1.73;;
25391;SDS011;13329;48.402;11.718;2023-04-25T08:11:10;4.97;;;1.90;;
25391;SDS011;13329;48.402;11.718;2023-04-25T08:13:36;5.73;;;1.83;;
25391;SDS011;13329;48.402;11.718;2023-04-25T08:16:01;4.60;;;1.90;;
25391;SDS011;13329;48.402;11.718;2023-04-25T08:18:26;3.13;;;1.80;;
25391;SDS011;13329;48.402;11.718;2023-04-25T08:20:51;4.03;;;1.73;;
25391;SDS011;13329;48.402;11.718;2023-04-25T08:23:16;2.53;;;1.13;;
25391;SDS011;13329;48.402;11.718;2023-04-25T08:25:41;2.42;;;1.48;;
25391;SDS011;13329;48.402;11.718;2023-04-25T08:28:06;2.90;;;1.63;;
25391;SDS011;13329;48.402;11.718;2023-04-25T08:30:32;5.23;;;1.70;;
25391;SDS011;13329;48.402;11.718;2023-04-25T08:32:57;5.67;;;1.87;;
25391;SDS011;13329;48.402;11.718;2023-04-25T08:35:22;5.05;;;2.10;;
25391;SDS011;13329;48.402;11.718;2023-04-25T08:37:48;5.68;;;1.70;;
25391;SDS011;13329;48.402;11.718;2023-04-25T08:40:14;2.83;;;1.73;;
25391;SDS011;13329;48.402;11.718;2023-04-25T08:42:40;2.22;;;1.67;;
25391;SDS011;13329;48.402;11.718;2023-04-25T08:45:06;3.25;;;1.40;;
25391;SDS011;13329;48.402;11.718;2023-04-25T08:47:32;4.13;;;1.70;;
25391;SDS011;13329;48.402;11.718;2023-04-25T08:49:58;4.63;;;1.50;;
25391;SDS011;13329;48.402;11.718;2023-04-25T08:52:24;5.00;;;1.95;;
25391;SDS011;13329;48.402;11.718;2023-04-25T08:54:52;3.58;;;1.95;;
25391;SDS011;13329;48.402;11.718;2023-04-25T08:57:19;2.90;;;1.42;;
25391;SDS011;13329;48.402;11.718;2023-04-25T08:59:44;4.13;;;1.55;;
25391;SDS011;13329;48.402;11.718;2023-04-25T09:02:11;2.03;;;1.48;;
25391;SDS011;13329;48.402;11.718;2023-04-25T09:04:39;2.72;;;1.67;;
25391;SDS011;13329;48.402;11.718;2023-04-25T09:07:04;2.60;;;1.55;;
25391;SDS011;13329;48.402;11.718;2023-04-25T09:09:30;2.10;;;1.17;;
25391;SDS011;13329;48.402;11.718;2023-04-25T09:11:55;3.38;;;1.65;;
25391;SDS011;13329;48.402;11.718;2023-04-25T09:14:23;1.65;;;1.38;;
25391;SDS011;13329;48.402;11.718;2023-04-25T09:19:22;4.07;;;1.70;;
25391;SDS011;13329;48.402;11.718;2023-04-25T09:21:50;6.43;;;1.60;;
25391;SDS011;13329;48.402;11.718;2023-04-25T09:24:16;1.90;;;1.45;;
25391;SDS011;13329;48.402;11.718;2023-04-25T09:26:41;2.67;;;1.40;;
25391;SDS011;13329;48.402;11.718;2023-04-25T09:29:06;4.20;;;1.50;;
25391;SDS011;13329;48.402;11.718;2023-04-25T09:31:32;2.67;;;1.30;;
25391;SDS011;13329;48.402;11.718;2023-04-25T09:33:59;2.75;;;1.70;;
25391;SDS011;13329;48.402;11.718;2023-04-25T09:36:25;2.05;;;1.23;;
25391;SDS011;13329;48.402;11.718;2023-04-25T09:38:51;2.70;;;1.30;;
25391;SDS011;13329;48.402;11.718;2023-04-25T09:41:21;3.45;;;1.38;;
25391;SDS011;13329;48.402;11.718;2023-04-25T09:43:46;1.83;;;1.40;;
25391;SDS011;13329;48.402;11.718;2023-04-25T09:46:14;5.20;;;1.50;;
25391;SDS011;13329;48.402;11.718;2023-04-25T09:48:39;1.37;;;1.00;;
25391;SDS011;13329;48.402;11.718;2023-04-25T09:51:07;2.65;;;1.48;;
25391;SDS011;13329;48.402;11.718;2023-04-25T09:53:34;1.75;;;1.30;;
25391;SDS011;13329;48.402;11.718;2023-04-25T09:55:59;1.60;;;1.23;;
25391;SDS011;13329;48.402;11.718;2023-04-25T09:58:25;1.98;;;1.20;;
25391;SDS011;13329;48.402;11.718;2023-04-25T10:00:51;4.63;;;1.13;;
25391;SDS011;13329;48.402;11.718;2023-04-25T10:03:17;1.75;;;1.00;;
25391;SDS011;13329;48.402;11.718;2023-04-25T10:05:42;1.95;;;1.13;;
25391;SDS011;13329;48.402;11.718;2023-04-25T10:08:08;2.22;;;1.02;;
25391;SDS011;13329;48.402;11.718;2023-04-25T10:10:33;1.88;;;1.27;;
25391;SDS011;13329;48.402;11.718;2023-04-25T10:13:02;2.38;;;1.17;;
25391;SDS011;13329;48.402;11.718;2023-04-25T10:15:27;2.13;;;1.00;;
25391;SDS011;13329;48.402;11.718;2023-04-25T10:17:53;1.13;;;0.85;;
25391;SDS011;13329;48.402;11.718;2023-04-25T10:20:18;2.35;;;0.85;;
25391;SDS011;13329;48.402;11.718;2023-04-25T10:22:46;3.03;;;1.00;;
25391;SDS011;13329;48.402;11.718;2023-04-25T10:25:13;3.55;;;1.15;;
25391;SDS011;13329;48.402;11.718;2023-04-25T10:27:39;1.45;;;1.00;;
25391;SDS011;13329;48.402;11.718;2023-04-25T10:30:05;2.28;;;1.35;;
25391;SDS011;13329;48.402;11.718;2023-04-25T10:32:33;1.83;;;1.00;;
25391;SDS011;13329;48.402;11.718;2023-04-25T10:35:09;1.70;;;1.23;;
25391;SDS011;13329;48.402;11.718;2023-04-25T10:37:35;2.30;;;1.25;;
25391;SDS011;13329;48.402;11.718;2023-04-25T10:40:02;1.53;;;0.97;;
25391;SDS011;13329;48.402;11.718;2023-04-25T10:42:32;2.23;;;1.10;;
25391;SDS011;13329;48.402;11.718;2023-04-25T10:45:01;3.47;;;1.42;;
25391;SDS011;13329;48.402;11.718;2023-04-25T10:47:34;2.78;;;1.48;;
25391;SDS011;13329;48.402;11.718;2023-04-25T10:50:04;6.18;;;1.58;;
25391;SDS011;13329;48.402;11.718;2023-04-25T10:52:29;3.20;;;2.30;;
25391;SDS011;13329;48.402;11.718;2023-04-25T10:54:55;2.30;;;1.37;;
25391;SDS011;13329;48.402;11.718;2023-04-25T10:57:30;1.92;;;1.27;;
25391;SDS011;13329;48.402;11.718;2023-04-25T11:00:06;1.83;;;1.33;;
25391;SDS011;13329;48.402;11.718;2023-04-25T11:02:36;2.10;;;1.27;;
25391;SDS011;13329;48.402;11.718;2023-04-25T11:05:01;2.72;;;1.40;;
25391;SDS011;13329;48.402;11.718;2023-04-25T11:07:33;2.25;;;1.40;;
25391;SDS011;13329;48.402;11.718;2023-04-25T11:10:00;2.65;;;1.33;;
25391;SDS011;13329;48.402;11.718;2023-04-25T11:12:26;4.07;;;2.17;;
25391;SDS011;13329;48.402;11.718;2023-04-25T11:14:57;4.87;;;1.53;;
25391;SDS011;13329;48.402;11.718;2023-04-25T11:17:24;1.65;;;1.30;;
25391;SDS011;13329;48.402;11.718;2023-04-25T11:19:50;2.40;;;1.30;;
25391;SDS011;13329;48.402;11.718;2023-04-25T11:22:15;1.97;;;1.20;;
25391;SDS011;13329;48.402;11.718;2023-04-25T11:24:40;2.10;;;1.40;;
25391;SDS011;13329;48.402;11.718;2023-04-25T11:27:05;1.63;;;1.20;;
25391;SDS011;13329;48.402;11.718;2023-04-25T11:29:31;2.27;;;0.90;;
25391;SDS011;13329;48.402;11.718;2023-04-25T11:31:57;3.25;;;1.15;;
25391;SDS011;13329;48.402;11.718;2023-04-25T11:34:26;2.00;;;1.30;;
25391;SDS011;13329;48.402;11.718;2023-04-25T11:36:51;3.95;;;1.70;;
25391;SDS011;13329;48.402;11.718;2023-04-25T11:39:18;2.13;;;1.50;;
25391;SDS011;13329;48.402;11.718;2023-04-25T11:41:43;2.47;;;1.85;;
25391;SDS011;13329;48.402;11.718;2023-04-25T11:44:08;3.03;;;1.23;;
25391;SDS011;13329;48.402;11.718;2023-04-25T11:46:33;3.50;;;1.73;;
25391;SDS011;13329;48.402;11.718;2023-04-25T11:48:59;3.63;;;1.77;;
25391;SDS011;13329;48.402;11.718;2023-04-25T11:51:24;1.73;;;1.23;;
25391;SDS011;13329;48.402;11.718;2023-04-25T11:53:50;2.25;;;1.48;;
25391;SDS011;13329;48.402;11.718;2023-04-25T11:56:15;2.87;;;1.63;;
25391;SDS011;13329;48.402;11.718;2023-04-25T11:59:00;2.45;;;1.38;;
25391;SDS011;13329;48.402;11.718;2023-04-25T12:03:57;2.83;;;1.80;;
25391;SDS011;13329;48.402;11.718;2023-04-25T12:06:28;3.37;;;1.90;;
25391;SDS011;13329;48.402;11.718;2023-04-25T12:09:02;2.95;;;1.98;;
25391;SDS011;13329;48.402;11.718;2023-04-25T12:11:29;1.40;;;1.13;;
25391;SDS011;13329;48.402;11.718;2023-04-25T12:13:54;4.00;;;1.92;;
25391;SDS011;13329;48.402;11.718;2023-04-25T12:16:19;2.83;;;1.80;;
25391;SDS011;13329;48.402;11.718;2023-04-25T12:18:45;5.63;;;2.07;;
25391;SDS011;13329;48.402;11.718;2023-04-25T12:21:10;3.43;;;2.10;;
25391;SDS011;13329;48.402;11.718;2023-04-25T12:23:35;3.07;;;1.60;;
25391;SDS011;13329;48.402;11.718;2023-04-25T12:26:03;2.30;;;1.75;;
25391;SDS011;13329;48.402;11.718;2023-04-25T12:28:28;3.37;;;1.53;;
25391;SDS011;13329;48.402;11.718;2023-04-25T12:31:00;3.28;;;1.95;;
25391;SDS011;13329;48.402;11.718;2023-04-25T12:33:26;4.60;;;1.73;;
25391;SDS011;13329;48.402;11.718;2023-04-25T12:35:52;2.00;;;1.30;;
25391;SDS011;13329;48.402;11.718;2023-04-25T12:38:21;1.45;;;1.02;;
25391;SDS011;13329;48.402;11.718;2023-04-25T12:40:46;1.73;;;1.35;;
25391;SDS011;13329;48.402;11.718;2023-04-25T12:43:11;2.93;;;1.40;;
25391;SDS011;13329;48.402;11.718;2023-04-25T12:45:36;1.40;;;1.20;;
25391;SDS011;13329;48.402;11.718;2023-04-25T12:48:02;1.00;;;0.93;;
25391;SDS011;13329;48.402;11.718;2023-04-25T12:50:27;1.98;;;1.05;;
25391;SDS011;13329;48.402;11.718;2023-04-25T12:52:52;2.22;;;1.10;;
25391;SDS011;13329;48.402;11.718;2023-04-25T12:55:17;1.57;;;1.20;;
25391;SDS011;13329;48.402;11.718;2023-04-25T12:57:42;2.50;;;1.20;;
25391;SDS011;13329;48.402;11.718;2023-04-25T13:00:08;1.57;;;0.97;;
25391;SDS011;13329;48.402;11.718;2023-04-25T13:02:35;1.70;;;1.00;;
25391;SDS011;13329;48.402;11.718;2023-04-25T13:05:00;1.57;;;1.10;;
25391;SDS011;13329;48.402;11.718;2023-04-25T13:07:25;1.20;;;1.00;;
25391;SDS011;13329;48.402;11.718;2023-04-25T13:09:50;1.38;;;0.75;;
25391;SDS011;13329;48.402;11.718;2023-04-25T13:12:15;1.70;;;0.93;;
25391;SDS011;13329;48.402;11.718;2023-04-25T13:14:40;1.42;;;1.23;;
25391;SDS011;13329;48.402;11.718;2023-04-25T13:17:06;1.10;;;0.80;;
25391;SDS011;13329;48.402;11.718;2023-04-25T13:19:31;0.70;;;0.47;;
25391;SDS011;13329;48.402;11.718;2023-04-25T13:21:56;1.97;;;0.90;;
25391;SDS011;13329;48.402;11.718;2023-04-25T13:24:21;1.00;;;0.80;;
25391;SDS011;13329;48.402;11.718;2023-04-25T13:26:46;1.70;;;0.80;;
25391;SDS011;13329;48.402;11.718;2023-04-25T13:29:11;1.17;;;0.77;;
25391;SDS011;13329;48.402;11.718;2023-04-25T13:31:37;1.77;;;1.10;;
25391;SDS011;13329;48.402;11.718;2023-04-25T13:34:02;1.10;;;0.63;;
25391;SDS011;13329;48.402;11.718;2023-04-25T13:36:27;3.07;;;1.67;;
25391;SDS011;13329;48.402;11.718;2023-04-25T13:38:52;1.40;;;0.98;;
25391;SDS011;13329;48.402;11.718;2023-04-25T13:41:18;2.13;;;1.03;;
25391;SDS011;13329;48.402;11.718;2023-04-25T13:43:43;1.42;;;1.00;;
25391;SDS011;13329;48.402;11.718;2023-04-25T13:46:09;1.10;;;0.90;;
25391;SDS011;13329;48.402;11.718;2023-04-25T13:48:34;3.95;;;1.30;;
25391;SDS011;13329;48.402;11.718;2023-04-25T13:51:00;2.72;;;0.80;;
25391;SDS011;13329;48.402;11.718;2023-04-25T13:53:25;1.40;;;0.80;;
25391;SDS011;13329;48.402;11.718;2023-04-25T13:55:50;2.47;;;1.00;;
25391;SDS011;13329;48.402;11.718;2023-04-25T13:58:15;1.23;;;1.07;;
25391;SDS011;13329;48.402;11.718;2023-04-25T14:00:41;2.08;;;1.10;;
25391;SDS011;13329;48.402;11.718;2023-04-25T14:03:08;1.13;;;0.82;;
25391;SDS011;13329;48.402;11.718;2023-04-25T14:05:34;1.60;;;0.88;;
25391;SDS011;13329;48.402;11.718;2023-04-25T14:08:03;1.67;;;0.85;;
25391;SDS011;13329;48.402;11.718;2023-04-25T14:10:28;2.35;;;0.90;;
25391;SDS011;13329;48.402;11.718;2023-04-25T14:12:53;1.37;;;0.77;;
25391;SDS011;13329;48.402;11.718;2023-04-25T14:15:18;0.70;;;0.70;;
25391;SDS011;13329;48.402;11.718;2023-04-25T14:17:43;1.50;;;0.83;;
25391;SDS011;13329;48.402;11.718;2023-04-25T14:20:10;0.88;;;0.73;;
25391;SDS011;13329;48.402;11.718;2023-04-25T14:22:36;1.70;;;0.93;;
25391;SDS011;13329;48.402;11.718;2023-04-25T14:25:01;1.42;;;1.08;;
25391;SDS011;13329;48.402;11.718;2023-04-25T14:27:27;1.55;;;0.90;;
25391;SDS011;13329;48.402;11.718;2023-04-25T14:29:52;2.00;;;1.00;;